Latest Weather Observations for Warwick

IDQ60901

Issued at 3:01 pm EST Friday 26 August 2016 (issued every 10 minutes, with the page automatically refreshed every 10 minutes)

About weather observations | Map of Brisbane area stations | Latest observations for Brisbane area | Other Formats
Station Details ID: 041525 Name: WARWICK Lat: -28.21 Lon: 152.10 Height: 475.4 m
Data from the previous 72 hours. | See also: Recent months at Warwick
Date/Time
EST
Temp
°C
App
Temp
°C
Dew
Point
°C
Rel
Hum
%
Delta-T
°C
Wind Press
QNH
hPa
Press
MSL
hPa
Rain since
9am
mm
Dir  Spd
km/h
Gust
km/h
Spd
kts
Gust
kts
26/03:00pm 15.1 11.0 2.1 41 5.9 W 13 24 7 13 1014.2 1014.0 0.0
26/02:30pm 15.6 12.0 0.7 36 6.6 SW 9 15 5 8 1014.3 1014.1 0.0
26/02:00pm 15.3 11.6 2.1 41 6.0 W 11 20 6 11 1014.5 1014.4 0.0
26/01:30pm 14.8 11.2 0.7 38 6.2 WSW 9 19 5 10 1014.7 1014.6 0.0
26/01:00pm 14.4 10.0 0.4 38 6.1 WNW 13 22 7 12 1014.9 1014.8 0.0
26/12:30pm 13.9 10.0 1.2 42 5.6 WNW 11 22 6 12 1015.4 1015.2 0.0
26/12:00pm 13.4 9.6 2.0 46 5.1 W 11 17 6 9 1016.1 1015.9 0.0
26/11:30am 13.2 10.5 3.7 52 4.4 WNW 7 15 4 8 1016.6 1016.5 0.0
26/11:00am 12.3 9.7 3.3 54 4.1 NE 6 13 3 7 1017.0 1016.9 0.0
26/10:30am 11.2 8.6 3.2 58 3.6 SSE 6 11 3 6 1017.4 1017.2 0.0
26/10:00am 10.4 7.4 2.1 56 3.6 SSE 7 11 4 6 1017.6 1017.4 0.0
26/09:30am 9.5 7.6 2.6 62 3.0 SSW 2 7 1 4 1017.8 1017.6 0.0
26/09:00am 8.0 7.0 5.6 85 1.1 CALM 0 0 0 0 1018.2 1018.1 0.0
26/08:30am 5.8 4.5 4.2 89 0.7 CALM 0 0 0 0 1018.5 1018.4 0.0
26/08:00am 4.6 3.2 3.7 94 0.4 CALM 0 2 0 1 1018.4 1018.3 0.0
26/07:30am 3.3 1.4 2.6 95 0.3 SW 2 9 1 5 1018.4 1018.3 0.0
26/07:00am 1.2 -0.7 0.7 96 0.2 CALM 0 0 0 0 1018.0 1017.9 0.0
26/06:30am 1.6 -1.3 1.3 98 0.1 E 6 7 3 4 1017.5 1017.3 0.0
26/06:00am 1.5 -1.0 1.5 100 0.0 NE 4 7 2 4 1017.0 1016.9 0.0
26/05:30am 1.9 -1.1 0.6 91 0.5 NNE 6 7 3 4 1016.9 1016.8 0.0
26/05:00am 1.8 0.1 1.8 100 0.0 CALM 0 9 0 5 1016.7 1016.6 0.0
26/04:30am 2.3 0.6 1.8 96 0.2 CALM 0 0 0 0 1016.3 1016.2 0.0
26/04:00am 2.0 0.3 2.0 100 0.0 CALM 0 0 0 0 1016.2 1016.1 0.0
26/03:30am 2.3 0.3 2.1 99 0.1 E 2 9 1 5 1016.1 1015.9 0.0
26/03:00am 2.4 -0.4 2.2 99 0.1 NNE 6 7 3 4 1016.3 1016.2 0.0
26/02:30am 3.2 1.6 2.7 96 0.2 CALM 0 0 0 0 1016.1 1015.9 0.0
26/02:00am 4.0 2.1 3.0 93 0.4 SSE 2 13 1 7 1016.2 1016.1 0.0
26/01:30am 3.9 2.4 3.2 95 0.3 CALM 0 0 0 0 1016.6 1016.5 0.0
26/01:00am 4.6 3.3 3.9 95 0.3 CALM 0 0 0 0 1016.8 1016.7 0.0
26/12:30am 4.7 3.3 3.8 94 0.4 CALM 0 0 0 0 1016.9 1016.8 0.0
26/12:00am 5.5 4.2 3.9 89 0.7 CALM 0 0 0 0 1016.9 1016.8 0.0
 
Date/Time
EST
Temp
°C
App
Temp
°C
Dew
Point
°C
Rel
Hum
%
Delta-T
°C
Wind Press
QNH
hPa
Press
MSL
hPa
Rain since
9am
mm
Dir  Spd
km/h
Gust
km/h
Spd
kts
Gust
kts
25/11:30pm 6.2 3.8 4.2 87 0.9 W 6 11 3 6 1016.7 1016.6 0.0
25/11:00pm 6.8 4.1 3.8 81 1.3 W 7 13 4 7 1016.5 1016.4 0.0
25/10:30pm 6.6 3.6 4.3 85 1.0 WSW 9 13 5 7 1016.6 1016.5 0.0
25/10:00pm 7.5 3.7 4.1 79 1.5 W 13 19 7 10 1016.7 1016.6 0.0
25/09:30pm 7.6 3.8 4.0 78 1.6 W 13 19 7 10 1016.8 1016.7 0.0
25/09:00pm 7.1 4.5 4.4 83 1.2 W 7 11 4 6 1016.6 1016.5 0.0
25/08:30pm 7.1 4.6 4.9 86 1.0 WSW 7 11 4 6 1016.6 1016.5 0.0
25/08:00pm 7.6 4.7 4.7 82 1.3 WSW 9 15 5 8 1016.2 1016.1 0.0
25/07:30pm 8.5 5.2 4.5 76 1.8 WSW 11 17 6 9 1015.7 1015.5 0.0
25/07:00pm 8.5 5.3 5.2 80 1.5 WSW 11 17 6 9 1015.2 1015.0 0.0
25/06:30pm 9.3 6.1 5.0 74 2.0 WSW 11 17 6 9 1014.6 1014.5 0.0
25/06:00pm 10.2 6.1 4.1 66 2.8 WSW 15 24 8 13 1013.9 1013.7 0.0
25/05:30pm 10.9 6.0 4.9 66 2.8 SW 20 28 11 15 1013.5 1013.3 0.0
25/05:00pm 12.2 6.7 4.0 57 3.8 SW 22 32 12 17 1013.2 1013.0 0.0
25/04:30pm 13.1 8.1 3.8 53 4.3 WSW 19 32 10 17 1012.9 1012.7 0.0
25/04:00pm 13.1 7.2 4.1 54 4.2 SW 24 32 13 17 1012.6 1012.5 0.0
25/03:30pm 13.4 8.3 4.0 53 4.4 WSW 20 33 11 18 1012.4 1012.2 0.0
25/03:00pm 13.6 7.8 4.2 53 4.4 WSW 24 39 13 21 1012.3 1012.1 0.0
25/02:30pm 13.9 8.4 3.9 51 4.7 WSW 22 39 12 21 1012.0 1011.8 0.0
25/02:00pm 13.9 8.5 4.7 54 4.4 W 22 32 12 17 1012.0 1011.8 0.0
25/01:30pm 12.6 6.4 4.2 56 3.9 WSW 26 43 14 23 1011.7 1011.5 0.0
25/01:00pm 13.3 7.8 5.7 60 3.7 WSW 24 37 13 20 1011.7 1011.5 0.0
25/12:30pm 13.1 8.2 5.1 58 3.8 WSW 20 37 11 20 1012.0 1011.8 0.0
25/12:00pm 13.1 7.5 5.4 59 3.7 WSW 24 35 13 19 1012.3 1012.1 0.0
25/11:30am 12.1 7.6 5.9 66 3.0 W 19 32 10 17 1012.8 1012.6 0.0
25/11:00am 11.4 6.6 5.5 67 2.8 SW 20 32 11 17 1012.9 1012.7 0.0
25/10:30am 11.3 6.1 5.6 68 2.7 WSW 22 33 12 18 1012.9 1012.7 0.0
25/10:00am 11.2 6.3 5.0 65 2.9 WSW 20 32 11 17 1012.8 1012.6 0.0
25/09:30am 10.8 5.6 5.5 70 2.5 WSW 22 33 12 18 1012.6 1012.5 0.0
25/09:00am 10.1 4.4 4.9 70 2.4 WSW 24 39 13 21 1012.5 1012.3 13.0
25/08:36am 10.5 3.9 4.4 66 2.8 WSW 28 48 15 26 1012.2 1012.0 13.0
25/08:30am 10.3 5.0 4.9 69 2.5 WSW 22 37 12 20 1012.3 1012.1 13.0
25/08:00am 9.2 4.7 4.4 72 2.2 WSW 17 28 9 15 1012.2 1012.0 13.0
25/07:30am 9.0 4.2 4.4 73 2.1 W 19 32 10 17 1011.9 1011.7 13.0
25/07:00am 8.8 4.1 5.1 77 1.7 W 19 32 10 17 1011.6 1011.4 13.0
25/06:30am 8.7 4.5 5.5 80 1.5 W 17 32 9 17 1011.1 1010.9 13.0
25/06:00am 8.9 4.1 5.7 80 1.5 WSW 20 35 11 19 1010.7 1010.4 13.0
25/05:30am 9.2 4.8 6.5 83 1.3 WSW 19 30 10 16 1010.4 1010.2 13.0
25/05:00am 9.5 5.2 7.0 84 1.2 WSW 19 32 10 17 1009.9 1009.7 13.0
25/04:30am 9.7 5.5 7.5 86 1.1 W 19 32 10 17 1009.7 1009.5 13.0
25/04:00am 9.9 6.1 7.7 86 1.1 WSW 17 28 9 15 1008.4 1008.1 13.0
25/03:30am 10.2 5.1 7.6 84 1.3 WSW 24 41 13 22 1009.1 1008.9 13.0
25/03:00am 10.4 5.8 8.0 85 1.2 WSW 22 33 12 18 1009.4 1009.2 13.0
25/02:30am 10.6 6.3 7.8 83 1.4 W 20 35 11 19 1008.2 1008.0 13.0
25/02:00am 11.1 7.0 8.5 84 1.3 WSW 20 35 11 19 1008.2 1008.0 13.0
25/01:30am 11.5 7.0 8.6 82 1.5 WSW 22 33 12 18 1007.7 1007.5 13.0
25/01:00am 12.3 8.5 9.8 85 1.3 WSW 20 35 11 19 1009.4 1009.2 13.0
25/12:30am 12.7 9.2 10.8 88 1.0 W 20 32 11 17 1008.9 1008.6 13.0
25/12:00am 13.1 9.9 11.3 89 1.0 W 19 30 10 16 1009.4 1009.2 13.0
 
Date/Time
EST
Temp
°C
App
Temp
°C
Dew
Point
°C
Rel
Hum
%
Delta-T
°C
Wind Press
QNH
hPa
Press
MSL
hPa
Rain since
9am
mm
Dir  Spd
km/h
Gust
km/h
Spd
kts
Gust
kts
24/11:30pm 13.9 10.4 12.1 89 1.0 W 22 37 12 20 1009.0 1008.8 13.0
24/11:00pm 14.7 11.4 12.9 89 1.0 WNW 22 33 12 18 1007.3 1007.1 12.6
24/10:30pm 14.8 12.1 13.6 92 0.7 WNW 20 32 11 17 1007.3 1007.1 12.6
24/10:00pm 14.9 12.8 13.5 91 0.8 WNW 17 32 9 17 1007.6 1007.4 12.6
24/09:30pm 14.9 12.4 13.5 91 0.8 NW 19 30 10 16 1008.0 1007.8 12.6
24/09:00pm 14.7 13.7 13.5 92 0.7 NW 11 20 6 11 1007.9 1007.7 12.4
24/08:30pm 14.1 13.7 13.0 93 0.6 N 7 13 4 7 1008.0 1007.8 12.2
24/08:00pm 12.8 13.1 12.3 97 0.3 WSW 2 7 1 4 1007.6 1007.4 12.2
24/07:30pm 13.2 13.9 12.3 94 0.5 CALM 0 0 0 0 1007.7 1007.5 12.2
24/07:00pm 13.3 12.8 12.2 93 0.6 WNW 6 7 3 4 1008.2 1008.0 12.2
24/06:30pm 13.0 13.8 12.5 97 0.3 CALM 0 0 0 0 1007.6 1007.4 12.0
24/06:00pm 13.0 12.5 12.5 97 0.3 W 7 11 4 6 1008.4 1008.1 12.0
24/05:30pm 13.4 13.8 12.5 94 0.5 SW 2 9 1 5 1006.9 1006.6 12.0
24/05:00pm 13.7 14.4 12.3 91 0.8 CALM 0 0 0 0 1006.3 1006.0 12.0
24/04:30pm 13.6 13.1 12.2 91 0.8 N 6 7 3 4 1006.9 1006.6 12.0
24/04:00pm 13.6 13.0 12.2 91 0.8 ESE 7 11 4 6 1006.5 1006.2 12.0
24/03:30pm 13.7 13.2 11.9 89 1.0 SSE 6 9 3 5 1007.8 1007.6 12.0
24/03:00pm 13.7 13.1 12.3 91 0.8 ESE 7 11 4 6 1007.7 1007.5 12.0
24/02:30pm 13.5 12.5 12.2 92 0.7 SE 9 17 5 9 1008.1 1007.9 11.8
24/02:00pm 13.2 12.2 12.3 94 0.5 SE 9 17 5 9 1008.2 1008.0 11.4
24/01:30pm 13.1 12.1 12.2 94 0.5 SSE 9 17 5 9 1008.0 1007.8 11.2
24/01:00pm 13.1 12.1 12.2 94 0.5 SSE 9 15 5 8 1008.8 1008.5 10.6
24/12:30pm 12.8 12.1 12.1 95 0.4 SE 7 17 4 9 1008.7 1008.4 9.8
24/12:00pm 12.6 11.9 11.9 95 0.4 SW 7 9 4 5 1009.2 1009.0 9.0
24/11:30am 12.5 11.7 11.8 95 0.4 WSW 7 15 4 8 1009.2 1009.0 8.0
24/11:00am 12.4 12.6 11.7 95 0.4 WSW 2 9 1 5 1009.4 1009.2 6.6
24/10:30am 12.5 11.0 11.8 95 0.4 SSE 11 17 6 9 1009.2 1009.0 4.8
24/10:00am 12.4 11.2 11.7 95 0.4 SE 9 20 5 11 1009.6 1009.4 3.6
24/09:30am 12.5 9.3 12.0 97 0.3 SSE 20 35 11 19 1009.3 1009.1 1.8
24/09:00am 12.6 10.0 12.1 97 0.3 SSW 17 30 9 16 1009.9 1009.7 51.8
24/08:30am 12.8 11.5 12.4 97 0.2 S 11 22 6 12 1009.9 1009.7 47.2
24/08:00am 13.2 12.8 12.5 95 0.4 SE 6 19 3 10 1009.9 1009.7 41.8
24/07:30am 13.2 12.9 12.7 97 0.3 W 6 11 3 6 1010.0 1009.8 39.6
24/07:00am 13.2 13.2 12.5 95 0.4 S 4 9 2 5 1009.7 1009.5 35.8
24/06:30am 13.3 12.7 12.4 94 0.5 NE 7 13 4 7 1009.3 1009.1 31.0
24/06:00am 13.5 12.5 12.4 93 0.6 ENE 9 20 5 11 1009.4 1009.2 27.2
24/05:30am 13.5 13.6 12.8 95 0.4 SSE 4 11 2 6 1009.6 1009.4 24.8
24/05:00am 13.7 12.9 13.0 96 0.4 SE 9 15 5 8 1009.3 1009.1 23.4
24/04:30am 13.7 13.3 13.0 96 0.4 E 7 13 4 7 1009.2 1009.0 21.8
24/04:00am 13.8 14.1 13.3 97 0.3 ENE 4 9 2 5 1009.4 1009.2 20.4
24/03:30am 13.8 13.7 13.3 97 0.3 NE 6 9 3 5 1009.6 1009.4 18.2
24/03:00am 13.7 13.6 13.3 97 0.2 NNE 6 9 3 5 1009.7 1009.5 17.0
24/02:30am 13.6 14.2 13.1 97 0.3 NNW 2 7 1 4 1010.1 1009.9 15.6
24/02:00am 13.6 14.6 13.1 97 0.3 CALM 0 0 0 0 1010.3 1010.1 15.0
24/01:30am 13.5 13.3 13.0 97 0.3 N 6 11 3 6 1011.0 1010.8 14.2
24/01:00am 13.5 13.3 13.0 97 0.3 SE 6 13 3 7 1011.1 1010.9 13.6
24/12:30am 13.6 13.2 12.9 95 0.4 E 7 13 4 7 1011.2 1011.0 12.8
24/12:00am 13.8 13.6 12.9 94 0.5 NNE 6 7 3 4 1011.7 1011.5 11.6
 
Date/Time
EST
Temp
°C
App
Temp
°C
Dew
Point
°C
Rel
Hum
%
Delta-T
°C
Wind Press
QNH
hPa
Press
MSL
hPa
Rain since
9am
mm
Dir  Spd
km/h
Gust
km/h
Spd
kts
Gust
kts
23/11:30pm 13.7 14.0 13.3 97 0.2 SW 4 9 2 5 1012.2 1012.0 11.0
23/11:00pm 13.9 11.2 13.4 97 0.3 SSW 20 30 11 16 1012.2 1012.0 8.2
23/10:30pm 14.8 12.1 13.0 89 1.0 SSE 19 28 10 15 1011.6 1011.4 2.8
23/10:00pm 14.7 14.6 13.3 91 0.8 E 6 11 3 6 1012.5 1012.3 2.8
23/09:30pm 15.1 16.4 14.1 94 0.6 CALM 0 6 0 3 1013.1 1012.9 2.6
23/09:00pm 15.1 15.1 14.2 94 0.5 ESE 7 9 4 5 1013.5 1013.3 2.6
23/08:30pm 15.6 16.8 14.9 96 0.4 E 2 9 1 5 1013.8 1013.6 2.0
23/08:00pm 15.8 16.7 15.0 95 0.5 NE 4 9 2 5 1013.7 1013.5 1.4
23/07:30pm 15.6 15.4 14.7 94 0.5 NE 9 11 5 6 1013.6 1013.4 1.4
23/07:00pm 15.8 14.3 14.3 91 0.9 NNE 15 17 8 9 1013.7 1013.5 1.2
23/06:30pm 15.8 16.2 15.3 97 0.3 NE 7 9 4 5 1013.4 1013.2 1.0
23/06:00pm 16.1 17.9 15.4 96 0.4 CALM 0 0 0 0 1013.4 1013.2 1.0
23/05:30pm 16.6 17.4 14.9 90 1.0 W 4 9 2 5 1013.5 1013.3 1.0
23/05:00pm 17.8 18.2 14.8 82 1.8 WNW 6 9 3 5 1013.3 1013.1 0.4
23/04:30pm 18.3 17.9 14.2 77 2.4 W 9 15 5 8 1013.2 1013.0 0.4
23/04:00pm 18.6 17.3 13.6 72 2.9 WNW 13 19 7 10 1012.9 1012.7 0.4
23/03:30pm 18.7 18.1 14.7 77 2.4 NNW 11 15 6 8 1012.8 1012.6 0.4

Latest Capital City Observations: Canberra | Sydney | Melbourne | Brisbane | Adelaide | Perth | Hobart | Darwin

Other Formats:

Comma delimited format used in spreadsheet applications
http://www.bom.gov.au/fwo/IDQ60901/IDQ60901.94555.axf

JavaScript Object Notation format (JSON) in row-major order
http://www.bom.gov.au/fwo/IDQ60901/IDQ60901.94555.json